Data for 02/25/2006

Time Sea-Level Adjusted Pressure Absolute Pressure Temperature Relative Humidity Dew Point   
(mb) (inHg) (mb) (inHg) (C) (F) (%) (C) (F)
00:05 1021 30.15 850 25.1 -5.9 21.4 86 -7.9 17.8
00:10 1021 30.15 850 25.1 -5.9 21.4 86 -7.9 17.8
00:15 1021 30.15 850 25.1 -5.9 21.3 86 -8 17.7
00:20 1021 30.15 850 25.1 -6 21.3 86 -8 17.6
00:25 1021 30.15 850 25.1 -5.9 21.4 87 -7.8 17.9
00:30 1021 30.15 850 25.1 -5.9 21.4 86 -7.8 18
00:35 1021 30.15 850 25.1 -5.9 21.5 86 -7.8 17.9
00:40 1021 30.15 850 25.1 -5.8 21.5 84 -8.1 17.5
00:45 1021 30.15 850 25.1 -5.8 21.5 84 -8.1 17.5
00:50 1021 30.15 850 25.1 -5.9 21.5 84 -8.2 17.2
00:55 1021 30.15 850 25.1 -5.9 21.4 83 -8.3 17
01:00 1021 30.15 850 25.1 -5.9 21.4 83 -8.4 16.8
01:05 1021 30.15 850 25.1 -5.8 21.5 83 -8.3 17
01:10 1021 30.15 850 25.1 -5.9 21.3 83 -8.4 16.8
01:15 1021 30.15 850 25.1 -5.9 21.4 81 -8.6 16.5
01:20 1021 30.15 850 25.1 -5.9 21.3 81 -8.7 16.3
01:25 1021 30.15 850 25.1 -6 21.2 81 -8.9 16.1
01:30 1021 30.15 850 25.1 -6 21.2 80 -8.8 16.1
01:35 1021 30.15 850 25.1 -6 21.2 80 -8.9 16
01:40 1021 30.15 850 25.1 -5.9 21.4 80 -8.9 16.1
01:45 1021 30.15 850 25.1 -5.9 21.4 80 -8.7 16.3
01:50 1021 30.15 850 25.1 -5.8 21.6 79 -8.8 16.2
01:55 1021 30.15 850 25.1 -5.9 21.4 78 -9.2 15.5
02:00 1021 30.15 850 25.1 -5.9 21.3 77 -9.3 15.3
02:05 1021 30.15 850 25.1 -6 21.1 77 -9.4 15
02:10 1021 30.15 850 25.1 -6.1 21 78 -9.4 15.1
02:15 1021 30.15 850 25.1 -6.1 21 78 -9.4 15.2
02:20 1021 30.15 850 25.1 -6.1 21.1 79 -9.2 15.5
02:25 1021 30.15 850 25.1 -6.2 20.9 80 -9.1 15.6
02:30 1021 30.15 850 25.1 -6.2 20.8 81 -8.9 15.9
02:35 1021 30.15 850 25.1 -6.3 20.7 82 -8.9 16
02:40 1021 30.15 850 25.1 -6.4 20.5 83 -8.8 16.1
02:45 1021 30.15 850 25.1 -6.7 20 85 -8.8 16.2
02:50 1021 30.15 850 25.1 -6.7 19.9 86 -8.7 16.4
02:55 1021 30.15 850 25.1 -6.9 19.7 87 -8.6 16.5
03:00 1021 30.15 850 25.1 -6.9 19.7 88 -8.5 16.7
03:05 1021 30.15 850 25.1 -6.9 19.5 89 -8.5 16.7
03:10 1021 30.15 850 25.1 -6.9 19.6 89 -8.4 16.9
03:15 1021 30.15 850 25.1 -6.7 19.9 89 -8.3 17.1
03:20 1021 30.15 850 25.1 -6.6 20.2 88 -8.3 17.1
03:25 1021 30.15 850 25.1 -6.7 19.9 86 -8.7 16.3
03:30 1021 30.15 850 25.1 -7.1 19.2 87 -8.9 15.9
03:35 1021 30.15 850 25.1 -7.4 18.7 87 -9.2 15.5
03:40 1021 30.15 850 25.1 -7.6 18.3 89 -9.2 15.5
03:45 1021 30.15 850 25.1 -7.7 18.2 90 -9 15.8
03:50 1021 30.15 850 25.1 -7.6 18.3 90 -9 15.9
03:55 1021 30.15 850 25.1 -7.6 18.4 89 -9 15.7
04:00 1021 30.15 850 25.1 -7.6 18.4 89 -9.1 15.6
04:05 1021 30.15 850 25.1 -7.7 18.2 89 -9.2 15.4
04:10 1021 30.15 850 25.1 -7.6 18.3 88 -9.2 15.4
04:15 1021 30.15 850 25.1 -7.6 18.4 88 -9.2 15.5
04:20 1021 30.15 850 25.1 -7.8 18.1 89 -9.3 15.3
04:25 1021 30.15 850 25.1 -7.9 17.9 89 -9.3 15.2
04:30 1021 30.15 850 25.1 -8 17.5 90 -9.4 15.1
04:35 1021 30.15 850 25.1 -8.2 17.2 90 -9.6 14.7
04:40 1021 30.15 850 25.1 -8.3 17.1 89 -9.8 14.3
04:45 1021 30.15 850 25.1 -8.6 16.4 90 -10 14
04:50 1021 30.15 850 25.1 -8.6 16.4 91 -9.9 14.1
04:55 1021 30.15 850 25.1 -8.4 16.9 89 -9.9 14.2
05:00 1021 30.15 850 25.1 -8.2 17.3 88 -9.8 14.4
05:05 1021 30.15 850 25.1 -8.5 16.7 87 -10.2 13.6
05:10 1021 30.15 850 25.1 -8.9 15.9 86 -10.8 12.5
05:15 1021 30.15 850 25.1 -9.5 14.9 87 -11.2 11.8
05:20 1021 30.15 850 25.1 -9.4 15 86 -11.4 11.5
05:25 1021 30.15 850 25.1 -9.3 15.2 86 -11.3 11.6
05:30 1021 30.15 850 25.1 -9.3 15.2 85 -11.4 11.4
05:35 1021 30.15 850 25.1 -9.5 14.8 87 -11.3 11.7
05:40 1021 30.15 850 25.1 -9.7 14.5 87 -11.6 11.2
05:45 1021 30.15 851 25.13 -9.9 14.3 88 -11.5 11.3
05:50 1021 30.15 851 25.13 -9.7 14.6 89 -11.2 11.9
05:55 1021 30.15 851 25.13 -9.7 14.5 90 -11.1 12
06:00 1021 30.15 851 25.13 -9.5 14.8 90 -10.9 12.3
06:05 1022 30.18 851 25.13 -9.4 15.1 90 -10.8 12.5
06:10 1021 30.15 851 25.13 -9.2 15.5 88 -10.8 12.6
06:15 1021 30.15 851 25.13 -9.1 15.6 90 -10.5 13.1
06:20 1021 30.15 851 25.13 -9.4 15 88 -11 12.2
06:25 1021 30.15 851 25.13 -9.8 14.4 89 -11.3 11.7
06:30 1021 30.15 851 25.13 -9.9 14.2 89 -11.4 11.5
06:35 1021 30.15 851 25.13 -9.8 14.4 89 -11.2 11.8
06:40 1021 30.15 851 25.13 -9.7 14.5 89 -11.2 11.8
06:45 1021 30.15 851 25.13 -9.7 14.6 88 -11.3 11.7
06:50 1022 30.18 851 25.13 -9.5 15 88 -11.1 12
06:55 1021 30.15 851 25.13 -9.4 15.2 88 -11.1 12.1
07:00 1021 30.15 851 25.13 -9.3 15.2 87 -11.1 12.1
07:05 1021 30.15 851 25.13 -9.4 15.2 86 -11.2 11.8
07:10 1021 30.15 851 25.13 -9.4 15 87 -11.3 11.7
07:15 1021 30.15 851 25.13 -9.6 14.8 87 -11.4 11.5
07:20 1021 30.15 851 25.13 -9.7 14.5 87 -11.5 11.3
07:25 1021 30.15 851 25.13 -9.8 14.3 87 -11.6 11.2
07:30 1021 30.15 851 25.13 -10 14 87 -11.7 10.9
07:35 1021 30.15 851 25.13 -9.8 14.3 86 -11.7 11
07:40 1021 30.15 851 25.13 -9.7 14.5 86 -11.7 10.9
07:45 1021 30.15 851 25.13 -9.7 14.5 86 -11.7 10.9
07:50 1022 30.18 851 25.13 -9.6 14.8 85 -11.7 11
07:55 1022 30.18 851 25.13 -9.5 14.8 84 -11.7 10.9
08:00 1022 30.18 851 25.13 -9.3 15.3 83 -11.6 11.1
08:05 1022 30.18 851 25.13 -9 15.8 82 -11.6 11.2
08:10 1022 30.18 851 25.13 -8.6 16.4 80 -11.5 11.4
08:15 1022 30.18 851 25.13 -8.3 17.1 80 -11.2 11.8
08:20 1022 30.18 851 25.13 -8 17.6 78 -11.1 11.9
08:25 1022 30.18 851 25.13 -7.6 18.4 76 -11.1 12
08:30 1022 30.18 851 25.13 -7.1 19.2 75 -10.8 12.5
08:35 1022 30.18 851 25.13 -6.6 20.1 72 -10.8 12.6
08:40 1022 30.18 851 25.13 -6.5 20.3 73 -10.6 12.9
08:45 1022 30.18 851 25.13 -6.4 20.6 71 -10.7 12.7
08:50 1022 30.18 851 25.13 -5.5 22.1 68 -10.4 13.2
08:55 1022 30.18 851 25.13 -5.3 22.4 67 -10.4 13.2
09:00 1022 30.18 851 25.13 -4.9 23.2 67 -10.1 13.8
09:05 1022 30.18 851 25.13 -4.5 23.9 67 -9.7 14.5
09:10 1022 30.18 851 25.13 -4.2 24.4 65 -9.8 14.3
09:15 1022 30.18 851 25.13 -4 24.9 63 -9.9 14.1
09:20 1022 30.18 851 25.13 -3.7 25.4 64 -9.5 15
09:25 1022 30.18 851 25.13 -3.2 26.2 62 -9.6 14.8
09:30 1022 30.18 851 25.13 -2.7 27.2 59 -9.6 14.8
09:35 1022 30.18 851 25.13 -2.6 27.3 59 -9.6 14.7
09:40 1022 30.18 852 25.16 -2.5 27.5 59 -9.5 14.9
09:45 1022 30.18 852 25.16 -2.7 27.2 58 -9.9 14.2
09:50 1022 30.18 852 25.16 -3.5 25.8 58 -10.6 13
09:55 1022 30.18 852 25.16 -4 24.9 58 -11.1 12
10:00 1022 30.18 852 25.16 -4.4 24.1 59 -11.1 11.9
10:05 1022 30.18 852 25.16 -4.5 23.9 60 -11.2 11.9
10:10 1022 30.18 852 25.16 -4.6 23.7 61 -11.1 12
10:15 1022 30.18 852 25.16 -4 24.9 58 -11.1 11.9
10:20 1022 30.18 852 25.16 -3.4 25.8 57 -10.8 12.5
10:25 1022 30.18 852 25.16 -2.6 27.3 54 -10.6 12.9
10:30 1022 30.18 851 25.13 -2.5 27.4 55 -10.4 13.3
10:35 1022 30.18 852 25.16 -2.9 26.8 55 -10.8 12.6
10:40 1022 30.18 851 25.13 -2.9 26.7 55 -10.8 12.6
10:45 1022 30.18 852 25.16 -3.4 25.9 55 -11.2 11.9
10:50 1022 30.18 852 25.16 -2.9 26.8 53 -11.2 11.9
10:55 1022 30.18 852 25.16 -2.8 27 53 -11 12.1
11:00 1022 30.18 852 25.16 -2.6 27.2 53 -11 12.1
11:05 1022 30.18 852 25.16 -2.3 27.9 51 -11.1 12.1
11:10 1022 30.18 852 25.16 -2.2 28 50 -11.3 11.7
11:15 1023 30.21 852 25.16 -2.5 27.6 52 -11.1 12.1
11:20 1023 30.21 852 25.16 -1.9 28.7 49 -11.3 11.6
11:25 1023 30.21 852 25.16 -1.7 28.9 51 -10.6 13
11:30 1023 30.21 852 25.16 -1.2 29.9 46 -11.4 11.5
11:35 1023 30.21 852 25.16 -0.5 31.2 44 -11.1 11.9
11:40 1023 30.21 852 25.16 0.1 32.1 44 -10.7 12.7
11:45 1023 30.21 852 25.16 -0.3 31.4 48 -10.1 13.8
11:50 1023 30.21 852 25.16 -0.1 31.9 43 -11.3 11.6
11:55 1023 30.21 852 25.16 0.4 32.8 42 -11 12.3
12:00 1023 30.21 852 25.16 0 32 44 -10.7 12.7
12:05 1022 30.18 852 25.16 -0.9 30.4 48 -10.6 12.8
12:10 1023 30.21 852 25.16 -1.4 29.5 46 -11.5 11.3
12:15 1022 30.18 852 25.16 -0.4 31.3 45 -10.9 12.3
12:20 1022 30.18 852 25.16 0.1 32.3 44 -10.9 12.5
12:25 1022 30.18 852 25.16 0.8 33.4 42 -10.8 12.5
12:30 1022 30.18 852 25.16 1.3 34.3 42 -10.4 13.3
12:35 1022 30.18 851 25.13 1.7 35 43 -9.8 14.4
12:40 1022 30.18 851 25.13 0.9 33.7 44 -10.1 13.8
12:45 1022 30.18 851 25.13 1.5 34.6 42 -10 14
12:50 1022 30.18 851 25.13 1.2 34.2 43 -10.1 13.8
12:55 1022 30.18 851 25.13 0.9 33.5 42 -10.7 12.8
13:00 1022 30.18 851 25.13 1.4 34.5 41 -10.3 13.4
13:05 1022 30.18 851 25.13 2.1 35.8 40 -10.3 13.5
13:10 1022 30.18 851 25.13 2.5 36.5 40 -9.8 14.4
13:15 1022 30.18 851 25.13 2.4 36.2 40 -9.9 14.3
13:20 1022 30.18 851 25.13 2.3 36.2 40 -10.1 13.8
13:25 1022 30.18 851 25.13 2.3 36.2 40 -9.8 14.4
13:30 1022 30.18 851 25.13 2.3 36.1 41 -9.6 14.8
13:35 1022 30.18 851 25.13 1.5 34.6 43 -9.7 14.5
13:40 1022 30.18 851 25.13 2.2 36 40 -10.1 13.8
13:45 1021 30.15 851 25.13 2.4 36.4 41 -9.5 15
13:50 1021 30.15 851 25.13 2.7 36.8 40 -9.6 14.7
13:55 1021 30.15 851 25.13 2.8 37.1 39 -9.7 14.5
14:00 1021 30.15 851 25.13 2.6 36.7 43 -8.8 16.2
14:05 1021 30.15 851 25.13 1 33.8 47 -9 15.9
14:10 1021 30.15 850 25.1 1.2 34.1 46 -9.2 15.4
14:15 1021 30.15 850 25.1 1.9 35.4 45 -9 15.9
14:20 1021 30.15 850 25.1 1.8 35.2 47 -8.4 17
14:25 1021 30.15 850 25.1 2 35.6 44 -8.9 15.9
14:30 1021 30.15 850 25.1 2.5 36.5 42 -9.2 15.4
14:35 1021 30.15 850 25.1 2.9 37.2 41 -9.2 15.5
14:40 1021 30.15 850 25.1 3.1 37.6 42 -8.7 16.3
14:45 1021 30.15 850 25.1 3.6 38.4 39 -9 15.8
14:50 1021 30.15 850 25.1 3.9 39.1 37 -9.3 15.2
14:55 1021 30.15 850 25.1 4.4 39.8 39 -8.4 17
15:00 1021 30.15 850 25.1 4.3 39.8 37 -9.1 15.6
15:05 1021 30.15 850 25.1 4.3 39.7 36 -9.6 14.8
15:10 1021 30.15 850 25.1 4.3 39.7 37 -9.2 15.5
15:15 1021 30.15 850 25.1 4.7 40.5 35 -9.5 14.9
15:20 1021 30.15 850 25.1 4.6 40.3 35 -9.5 14.9
15:25 1021 30.15 850 25.1 4.2 39.5 38 -8.9 16.1
15:30 1021 30.15 850 25.1 4.2 39.5 37 -9.4 15
15:35 1021 30.15 850 25.1 4.4 39.9 35 -9.8 14.3
15:40 1021 30.15 850 25.1 4 39.3 37 -9.5 15
15:45 1021 30.15 850 25.1 4.4 40 35 -9.6 14.7
15:50 1021 30.15 850 25.1 5.1 41.1 33 -9.9 14.2
15:55 1021 30.15 850 25.1 5.2 41.4 34 -9.5 15
16:00 1021 30.15 850 25.1 5.5 41.9 34 -9 15.8
16:05 1021 30.15 850 25.1 6.2 43.1 32 -9.5 15
16:10 1021 30.15 850 25.1 6.1 43 33 -9.1 15.6
16:15 1021 30.15 850 25.1 6 42.8 31 -9.7 14.5
16:20 1021 30.15 850 25.1 6 42.8 32 -9.5 14.9
16:25 1021 30.15 850 25.1 5.3 41.6 33 -9.6 14.7
16:30 1021 30.15 850 25.1 5.3 41.6 33 -9.6 14.7
16:35 1021 30.15 850 25.1 5.6 42.1 32 -9.8 14.4
16:40 1021 30.15 850 25.1 5.9 42.6 32 -9.7 14.6
16:45 1021 30.15 850 25.1 5.1 41.2 34 -9.6 14.8
16:50 1021 30.15 850 25.1 4.7 40.4 34 -9.7 14.5
16:55 1021 30.15 850 25.1 4.3 39.7 35 -10 14.1
17:00 1021 30.15 850 25.1 4 39.2 35 -10.1 13.9
17:05 1021 30.15 850 25.1 4.6 40.3 34 -9.9 14.2
17:10 1021 30.15 850 25.1 4.8 40.6 35 -9.5 14.9
17:15 1021 30.15 850 25.1 4.5 40.1 34 -9.9 14.2
17:20 1021 30.15 850 25.1 4.2 39.6 34 -10.2 13.6
17:25 1021 30.15 850 25.1 4.1 39.4 34 -10.2 13.6
17:30 1021 30.15 850 25.1 4.1 39.3 34 -10.5 13.2
17:35 1021 30.15 850 25.1 4.2 39.6 34 -10.1 13.8
17:40 1021 30.15 850 25.1 4.1 39.4 35 -10.1 13.9
17:45 1021 30.15 850 25.1 3.8 38.8 36 -10 14
17:50 1021 30.15 850 25.1 3.8 38.8 37 -9.6 14.7
17:55 1021 30.15 850 25.1 3.9 39 37 -9.5 15
18:00 1021 30.15 850 25.1 3.7 38.7 39 -9 15.8
18:05 1021 30.15 850 25.1 3.5 38.4 40 -8.7 16.3
18:10 1021 30.15 850 25.1 3.4 38.1 42 -8.4 16.9
18:15 1021 30.15 850 25.1 3.4 38.1 42 -8.4 16.9
18:20 1021 30.15 850 25.1 2.9 37.2 44 -8.2 17.2
18:25 1021 30.15 850 25.1 2.6 36.7 44 -8.5 16.7
18:30 1021 30.15 850 25.1 2.4 36.2 48 -7.6 18.3
18:35 1021 30.15 850 25.1 2 35.6 45 -8.7 16.4
18:40 1021 30.15 850 25.1 2.1 35.7 46 -8.4 16.8
18:45 1021 30.15 850 25.1 1.9 35.5 47 -8.1 17.4
18:50 1021 30.15 850 25.1 1.7 35.1 46 -8.8 16.1
18:55 1021 30.15 850 25.1 1.6 34.9 50 -7.9 17.9
19:00 1021 30.15 850 25.1 1.2 34.1 51 -7.8 17.9
19:05 1021 30.15 850 25.1 1.1 34 49 -8.3 17
19:10 1021 30.15 850 25.1 1.3 34.4 50 -8 17.5
19:15 1021 30.15 850 25.1 1.2 34.2 50 -8.2 17.3
19:20 1021 30.15 850 25.1 1.2 34.2 47 -8.9 16
19:25 1021 30.15 850 25.1 1.4 34.6 47 -8.8 16.2
19:30 1021 30.15 850 25.1 1.6 34.9 43 -9.8 14.3
19:35 1021 30.15 850 25.1 2.2 36 41 -9.9 14.2
19:40 1021 30.15 850 25.1 1.9 35.5 43 -9.4 15.1
19:45 1021 30.15 850 25.1 2 35.6 43 -9.4 15
19:50 1021 30.15 850 25.1 1.8 35.3 47 -8.4 16.8
19:55 1021 30.15 850 25.1 1.2 34.2 52 -7.6 18.4
20:00 1021 30.15 850 25.1 0.7 33.3 53 -7.8 17.9
20:05 1021 30.15 850 25.1 0.6 33 52 -8.3 17
20:10 1021 30.15 850 25.1 0.8 33.5 50 -8.5 16.6
20:15 1021 30.15 850 25.1 1.1 33.9 50 -8.1 17.3
20:20 1021 30.15 850 25.1 1.2 34.2 48 -8.7 16.4
20:25 1021 30.15 850 25.1 1.1 34 48 -8.6 16.5
20:30 1021 30.15 850 25.1 1.1 34 49 -8.6 16.6
20:35 1021 30.15 850 25.1 1.1 34 49 -8.3 17
20:40 1021 30.15 850 25.1 1.2 34.1 49 -8.5 16.8
20:45 1021 30.15 850 25.1 1.2 34.2 47 -8.7 16.3
20:50 1021 30.15 850 25.1 1.4 34.6 47 -8.6 16.5
20:55 1021 30.15 850 25.1 1.2 34.1 49 -8.4 16.8
21:00 1021 30.15 850 25.1 0.8 33.4 50 -8.4 16.8
21:05 1021 30.15 850 25.1 0.7 33.3 50 -8.5 16.7
21:10 1021 30.15 850 25.1 0.4 32.7 51 -8.5 16.6
21:15 1021 30.15 850 25.1 0.6 33 48 -9.3 15.2
21:20 1021 30.15 850 25.1 1 33.9 46 -9.4 15.1
21:25 1021 30.15 850 25.1 0.9 33.6 48 -9 15.9
21:30 1021 30.15 850 25.1 0.5 32.8 49 -9 15.8
21:35 1021 30.15 850 25.1 0.5 32.8 48 -9.3 15.2
21:40 1021 30.15 850 25.1 0.4 32.8 48 -9.4 15.1
21:45 1021 30.15 850 25.1 0.6 33 47 -9.4 15
21:50 1021 30.15 850 25.1 0.8 33.4 47 -9.2 15.4
21:55 1021 30.15 850 25.1 0.6 33 47 -9.5 14.9
22:00 1021 30.15 850 25.1 0.7 33.2 46 -9.6 14.7
22:05 1021 30.15 850 25.1 0.7 33.2 47 -9.4 15
22:10 1021 30.15 850 25.1 0.5 32.9 47 -9.5 15
22:15 1021 30.15 850 25.1 -0.2 31.7 51 -9.1 15.6
22:20 1021 30.15 850 25.1 -0.7 30.7 53 -9.2 15.4
22:25 1021 30.15 850 25.1 -0.9 30.3 54 -9 15.8
22:30 1021 30.15 850 25.1 -0.9 30.3 53 -9.3 15.3
22:35 1021 30.15 850 25.1 -0.7 30.8 52 -9.3 15.2
22:40 1021 30.15 850 25.1 -0.5 31.1 51 -9.3 15.2
22:45 1021 30.15 850 25.1 -0.5 31.1 51 -9.5 15
22:50 1021 30.15 850 25.1 -0.3 31.4 50 -9.5 14.9
22:55 1021 30.15 850 25.1 -0.3 31.5 50 -9.5 14.9
23:00 1021 30.15 850 25.1 -0.3 31.4 50 -9.6 14.8
23:05 1021 30.15 850 25.1 -0.3 31.5 50 -9.6 14.8
23:10 1021 30.15 850 25.1 -0.3 31.5 50 -9.4 15
23:15 1021 30.15 850 25.1 -0.3 31.4 50 -9.5 14.9
23:20 1021 30.15 850 25.1 -0.2 31.6 50 -9.6 14.8
23:25 1021 30.15 850 25.1 -0.3 31.5 50 -9.5 15
23:30 1021 30.15 850 25.1 -0.3 31.4 50 -9.6 14.7
23:35 1020 30.12 850 25.1 -0.3 31.5 50 -9.5 14.9
23:40 1020 30.12 850 25.1 -0.3 31.4 50 -9.6 14.7
23:45 1020 30.12 849 25.07 -0.3 31.4 50 -9.6 14.7
23:50 1020 30.12 849 25.07 -0.4 31.4 50 -9.6 14.6
23:55 1020 30.12 849 25.07 -0.3 31.4 49 -9.7 14.6
24:00 1020 30.12 849 25.07 -0.4 31.3 49 -9.8 14.3